< < Back
Terminal Aerodrome Forecast


Current Version              Previous Versions:   1  2  3  4  5  6  7  8  9  

Terminal Aerodrome Forecast

194
FTUS42 KFFC 250551
TAFAHN
TAF
KAHN 250551Z 2506/2606 17003KT P6SM -RA BKN070
     FM251100 15003KT 5SM -SHRA SCT025 BKN045
     FM251500 21008G13KT 5SM -SHRA OVC015
      TEMPO 2515/2519 2SM SHRA BR BKN015
     FM251900 22010G16KT P6SM VCSH BKN012 PROB30 2520/2524 2SM TSRA
      BKN012CB
     FM260000 23009G15KT P6SM BKN050=

Latest METAR

090
SAUS70 KWBC 251200
MTRAHN
METAR KAHN 251146Z AUTO 00000KT 1 3/4SM +RA BR BKN045 OVC050 13/13 A2993
RMK AO2 SLP134 P0017 60021 70021 T01330128 10172 20133
53012


USA.gov is the U.S. government's official web portal to all federal, state and local government web resources and services.